createdAt,value
2022-09-03T00:00:00.302Z,17.30
2022-09-03T00:01:02.571Z,17.30
2022-09-03T00:02:07.701Z,17.30
2022-09-03T00:03:04.983Z,17.30
2022-09-03T00:04:05.763Z,17.30
2022-09-03T00:05:10.183Z,17.30
2022-09-03T00:06:01.296Z,17.30
2022-09-03T00:07:02.691Z,17.30
2022-09-03T00:08:10.176Z,17.30
2022-09-03T00:09:10.166Z,17.30
2022-09-03T00:10:04.489Z,17.30
2022-09-03T00:11:07.769Z,17.30
2022-09-03T00:12:01.266Z,17.30
2022-09-03T00:13:02.891Z,17.30
2022-09-03T00:14:06.027Z,17.30
2022-09-03T00:15:03.580Z,23.50
2022-09-03T00:16:02.136Z,23.50
2022-09-03T00:17:03.509Z,23.50
2022-09-03T00:18:10.189Z,23.50
2022-09-03T00:19:01.756Z,23.50
2022-09-03T00:20:06.066Z,23.50
2022-09-03T00:21:06.524Z,23.50
2022-09-03T00:22:04.509Z,23.50
2022-09-03T00:23:03.636Z,23.50
2022-09-03T00:24:02.379Z,23.50
2022-09-03T00:25:01.831Z,23.50
2022-09-03T00:26:10.177Z,23.50
2022-09-03T00:27:02.211Z,23.50
2022-09-03T00:28:01.864Z,23.50
2022-09-03T00:29:04.299Z,23.50
2022-09-03T00:30:03.251Z,23.50
2022-09-03T00:31:10.269Z,23.50
2022-09-03T00:32:05.161Z,23.50
2022-09-03T00:33:02.761Z,23.50
2022-09-03T00:34:03.875Z,23.50
2022-09-03T00:35:02.262Z,23.50
2022-09-03T00:36:01.263Z,23.50
2022-09-03T00:37:00.657Z,23.50
2022-09-03T00:38:00.551Z,23.50
2022-09-03T00:39:00.260Z,23.50
2022-09-03T00:40:00.463Z,23.50
2022-09-03T00:41:09.810Z,23.50
2022-09-03T00:42:10.288Z,23.50
2022-09-03T00:43:07.274Z,23.50
2022-09-03T00:44:09.993Z,22.60
2022-09-03T00:45:10.176Z,22.60
2022-09-03T00:46:10.228Z,22.60
2022-09-03T00:47:07.332Z,22.60
2022-09-03T00:48:03.623Z,22.60
2022-09-03T00:49:10.165Z,22.60
2022-09-03T00:50:00.302Z,22.60
2022-09-03T00:51:08.536Z,22.60
2022-09-03T00:52:01.252Z,22.60
2022-09-03T00:53:10.171Z,22.60
2022-09-03T00:54:10.166Z,22.60
2022-09-03T00:55:10.173Z,22.60
2022-09-03T00:56:10.180Z,22.60
2022-09-03T00:57:00.261Z,22.60
2022-09-03T00:58:07.611Z,22.60
2022-09-03T00:59:00.249Z,22.60
2022-09-03T01:00:10.333Z,22.60
2022-09-03T01:01:06.574Z,22.60
2022-09-03T01:02:10.217Z,22.60
2022-09-03T01:03:10.167Z,22.60
2022-09-03T01:04:10.167Z,22.60
2022-09-03T01:05:10.255Z,22.60
2022-09-03T01:06:01.828Z,22.60
2022-09-03T01:07:00.264Z,22.60
2022-09-03T01:08:10.176Z,22.60
2022-09-03T01:09:01.258Z,22.60
2022-09-03T01:10:01.264Z,22.60
2022-09-03T01:11:10.195Z,22.60
2022-09-03T01:12:06.149Z,22.60
2022-09-03T01:13:06.617Z,22.60
2022-09-03T01:14:01.286Z,22.60
2022-09-03T01:15:10.193Z,18.10
2022-09-03T01:16:07.988Z,18.10
2022-09-03T01:17:10.177Z,18.10
2022-09-03T01:18:10.164Z,18.10
2022-09-03T01:19:10.171Z,18.10
2022-09-03T01:20:00.269Z,18.10
2022-09-03T01:21:03.532Z,18.10
2022-09-03T01:22:03.522Z,18.10
2022-09-03T01:23:07.774Z,18.10
2022-09-03T01:24:10.189Z,18.10
2022-09-03T01:25:10.181Z,18.10
2022-09-03T01:26:10.184Z,18.10
2022-09-03T01:27:00.244Z,18.10
2022-09-03T01:28:10.175Z,18.10
2022-09-03T01:29:03.210Z,18.10
2022-09-03T01:30:00.282Z,18.10
2022-09-03T01:31:10.201Z,18.10
2022-09-03T01:32:05.330Z,18.10
2022-09-03T01:33:05.743Z,18.10
2022-09-03T01:34:03.613Z,18.10
2022-09-03T01:35:07.624Z,18.10
2022-09-03T01:36:10.162Z,18.10
2022-09-03T01:37:06.626Z,18.10
2022-09-03T01:38:10.171Z,18.10
2022-09-03T01:39:03.947Z,18.10
2022-09-03T01:40:10.184Z,18.10
2022-09-03T01:41:10.165Z,18.10
2022-09-03T01:42:10.164Z,18.10
2022-09-03T01:43:10.162Z,18.10
2022-09-03T01:44:04.130Z,18.10
2022-09-03T01:45:07.705Z,21.30
2022-09-03T01:46:04.554Z,21.30
2022-09-03T01:47:08.729Z,21.30
2022-09-03T01:48:10.162Z,21.30
2022-09-03T01:49:10.186Z,21.30
2022-09-03T01:50:04.096Z,21.30
2022-09-03T01:51:10.171Z,21.30
2022-09-03T01:52:06.523Z,21.30
2022-09-03T01:53:10.180Z,21.30
2022-09-03T01:54:10.872Z,21.30
2022-09-03T01:55:10.173Z,21.30
2022-09-03T01:56:10.719Z,21.30
2022-09-03T01:57:01.269Z,21.30
2022-09-03T01:58:10.183Z,21.30
2022-09-03T01:59:00.258Z,21.30
2022-09-03T02:00:03.474Z,21.30
2022-09-03T02:01:02.809Z,21.30
2022-09-03T02:02:02.955Z,21.30
2022-09-03T02:03:02.804Z,21.30
2022-09-03T02:04:00.792Z,21.30
2022-09-03T02:05:03.522Z,21.30
2022-09-03T02:06:00.601Z,21.30
2022-09-03T02:07:01.594Z,21.30
2022-09-03T02:08:03.556Z,21.30
2022-09-03T02:09:00.268Z,21.30
2022-09-03T02:10:01.455Z,21.30
2022-09-03T02:11:00.629Z,21.30
2022-09-03T02:12:05.498Z,21.30
2022-09-03T02:13:06.300Z,21.30
2022-09-03T02:14:00.299Z,21.30
2022-09-03T02:15:02.372Z,18.70
2022-09-03T02:16:02.672Z,18.70
2022-09-03T02:17:02.604Z,18.70
2022-09-03T02:18:01.657Z,18.70
2022-09-03T02:19:04.529Z,18.70
2022-09-03T02:20:04.386Z,18.70
2022-09-03T02:21:00.266Z,18.70
2022-09-03T02:22:00.296Z,18.70
2022-09-03T02:23:01.433Z,18.70
2022-09-03T02:24:02.002Z,18.70
2022-09-03T02:25:00.576Z,18.70
2022-09-03T02:26:01.400Z,18.70
2022-09-03T02:27:00.320Z,18.70
2022-09-03T02:28:00.743Z,18.70
2022-09-03T02:29:01.203Z,18.70
2022-09-03T02:30:00.298Z,18.70
2022-09-03T02:31:00.500Z,18.70
2022-09-03T02:32:00.449Z,18.70
2022-09-03T02:33:00.726Z,18.70
2022-09-03T02:34:00.278Z,18.70
2022-09-03T02:35:00.397Z,18.70
2022-09-03T02:36:01.055Z,18.70
2022-09-03T02:37:10.173Z,18.70
2022-09-03T02:38:08.351Z,18.70
2022-09-03T02:39:00.388Z,18.70
2022-09-03T02:40:00.514Z,18.70
2022-09-03T02:41:00.360Z,18.70
2022-09-03T02:42:00.450Z,18.70
2022-09-03T02:43:01.326Z,18.70
2022-09-03T02:44:04.458Z,18.70
2022-09-03T02:45:06.923Z,19.50
2022-09-03T02:46:01.508Z,19.50
2022-09-03T02:47:01.419Z,19.50
2022-09-03T02:48:00.322Z,19.50
2022-09-03T02:49:00.295Z,19.50
2022-09-03T02:50:00.326Z,19.50
2022-09-03T02:51:00.392Z,19.50
2022-09-03T02:52:01.733Z,19.50
2022-09-03T02:53:00.275Z,19.50
2022-09-03T02:54:00.270Z,19.50
2022-09-03T02:55:00.338Z,19.50
2022-09-03T02:56:00.785Z,19.50
2022-09-03T02:57:00.736Z,19.50
2022-09-03T02:58:00.266Z,19.50
2022-09-03T02:59:01.136Z,19.50
2022-09-03T03:00:00.387Z,19.50
2022-09-03T03:01:00.396Z,19.50
2022-09-03T03:02:01.042Z,19.50
2022-09-03T03:03:00.890Z,19.50
2022-09-03T03:04:00.323Z,19.50
2022-09-03T03:05:00.281Z,19.50
2022-09-03T03:06:01.843Z,19.50
2022-09-03T03:07:00.418Z,19.50
2022-09-03T03:08:00.390Z,19.50
2022-09-03T03:09:00.386Z,19.50
2022-09-03T03:10:00.269Z,19.50
2022-09-03T03:11:00.601Z,19.50
2022-09-03T03:12:00.274Z,19.50
2022-09-03T03:13:00.288Z,19.50
2022-09-03T03:14:00.268Z,19.50
2022-09-03T03:15:00.266Z,22.70
2022-09-03T03:16:01.492Z,22.70
2022-09-03T03:17:00.384Z,22.70
2022-09-03T03:18:00.275Z,22.70
2022-09-03T03:19:00.295Z,22.70
2022-09-03T03:20:00.336Z,22.70
2022-09-03T03:21:08.762Z,22.70
2022-09-03T03:22:00.265Z,22.70
2022-09-03T03:23:00.858Z,22.70
2022-09-03T03:24:00.738Z,22.70
2022-09-03T03:25:00.267Z,22.70
2022-09-03T03:26:02.299Z,22.70
2022-09-03T03:27:00.295Z,22.70
2022-09-03T03:28:00.380Z,22.70
2022-09-03T03:29:00.850Z,22.70
2022-09-03T03:30:00.280Z,22.70
2022-09-03T03:31:08.651Z,22.70
2022-09-03T03:32:00.388Z,22.70
2022-09-03T03:33:00.267Z,22.70
2022-09-03T03:34:01.466Z,22.70
2022-09-03T03:35:00.280Z,22.70
2022-09-03T03:36:09.745Z,22.70
2022-09-03T03:37:00.300Z,22.70
2022-09-03T03:38:00.410Z,22.70
2022-09-03T03:39:01.065Z,22.70
2022-09-03T03:40:00.426Z,22.70
2022-09-03T03:41:05.791Z,22.70
2022-09-03T03:42:00.265Z,22.70
2022-09-03T03:43:00.262Z,22.70
2022-09-03T03:44:01.615Z,22.70
2022-09-03T03:45:00.335Z,30.40
2022-09-03T03:46:00.327Z,30.40
2022-09-03T03:47:01.248Z,30.40
2022-09-03T03:48:00.261Z,30.40
2022-09-03T03:49:00.385Z,30.40
2022-09-03T03:50:00.327Z,30.40
2022-09-03T03:51:01.073Z,30.40
2022-09-03T03:52:00.297Z,30.40
2022-09-03T03:53:00.605Z,30.40
2022-09-03T03:54:04.826Z,30.40
2022-09-03T03:55:00.279Z,30.40
2022-09-03T03:56:01.332Z,30.40
2022-09-03T03:57:00.263Z,30.40
2022-09-03T03:58:00.262Z,30.40
2022-09-03T03:59:00.520Z,30.40
2022-09-03T04:00:00.451Z,30.40
2022-09-03T04:01:09.535Z,30.40
2022-09-03T04:02:00.338Z,30.40
2022-09-03T04:03:00.304Z,30.40
2022-09-03T04:04:00.572Z,30.40
2022-09-03T04:05:00.323Z,30.40
2022-09-03T04:06:00.848Z,30.40
2022-09-03T04:07:00.266Z,30.40
2022-09-03T04:08:00.739Z,30.40
2022-09-03T04:09:00.275Z,30.40
2022-09-03T04:10:00.369Z,30.40
2022-09-03T04:11:01.038Z,30.40
2022-09-03T04:12:00.370Z,30.40
2022-09-03T04:13:00.259Z,30.40
2022-09-03T04:14:01.346Z,30.40
2022-09-03T04:15:00.313Z,26.60
2022-09-03T04:16:04.388Z,26.60
2022-09-03T04:17:00.606Z,26.60
2022-09-03T04:18:00.256Z,26.60
2022-09-03T04:19:00.278Z,26.60
2022-09-03T04:20:00.312Z,26.60
2022-09-03T04:21:03.487Z,26.60
2022-09-03T04:22:00.275Z,26.60
2022-09-03T04:23:00.728Z,26.60
2022-09-03T04:24:00.252Z,26.60
2022-09-03T04:25:00.439Z,26.60
2022-09-03T04:26:00.310Z,26.60
2022-09-03T04:27:00.275Z,26.60
2022-09-03T04:28:00.347Z,26.60
2022-09-03T04:29:03.049Z,26.60
2022-09-03T04:30:00.270Z,26.60
2022-09-03T04:31:02.504Z,26.60
2022-09-03T04:32:00.315Z,26.60
2022-09-03T04:33:00.251Z,26.60
2022-09-03T04:34:00.565Z,26.60
2022-09-03T04:35:00.262Z,26.60
2022-09-03T04:36:04.436Z,26.60
2022-09-03T04:37:00.300Z,26.60
2022-09-03T04:38:00.271Z,26.60
2022-09-03T04:39:00.634Z,26.60
2022-09-03T04:40:00.401Z,26.60
2022-09-03T04:41:00.340Z,26.60
2022-09-03T04:42:00.290Z,26.60
2022-09-03T04:43:00.286Z,26.60
2022-09-03T04:44:00.301Z,26.60
2022-09-03T04:45:00.273Z,25.10
2022-09-03T04:46:01.672Z,25.10
2022-09-03T04:47:00.298Z,25.10
2022-09-03T04:48:01.138Z,25.10
2022-09-03T04:49:00.463Z,25.10
2022-09-03T04:50:00.259Z,25.10
2022-09-03T04:51:01.149Z,25.10
2022-09-03T04:52:00.937Z,25.10
2022-09-03T04:53:05.754Z,25.10
2022-09-03T04:54:00.882Z,25.10
2022-09-03T04:55:00.265Z,25.10
2022-09-03T04:56:00.408Z,25.10
2022-09-03T04:57:00.280Z,25.10
2022-09-03T04:58:00.307Z,25.10
2022-09-03T04:59:01.711Z,25.10
2022-09-03T05:00:00.310Z,25.10
2022-09-03T05:01:06.425Z,25.10
2022-09-03T05:02:00.361Z,25.10
2022-09-03T05:03:00.291Z,25.10
2022-09-03T05:04:00.741Z,25.10
2022-09-03T05:05:00.365Z,25.10
2022-09-03T05:06:00.266Z,25.10
2022-09-03T05:07:00.410Z,25.10
2022-09-03T05:08:00.632Z,25.10
2022-09-03T05:09:00.617Z,25.10
2022-09-03T05:10:00.273Z,25.10
2022-09-03T05:11:00.522Z,25.10
2022-09-03T05:12:00.263Z,25.10
2022-09-03T05:13:01.587Z,25.10
2022-09-03T05:14:00.280Z,25.10
2022-09-03T05:15:00.287Z,18.70
2022-09-03T05:16:01.185Z,18.70
2022-09-03T05:17:00.331Z,18.70
2022-09-03T05:18:01.050Z,18.70
2022-09-03T05:19:00.289Z,18.70
2022-09-03T05:20:00.292Z,18.70
2022-09-03T05:21:02.929Z,18.70
2022-09-03T05:22:00.299Z,18.70
2022-09-03T05:23:01.141Z,18.70
2022-09-03T05:24:00.707Z,18.70
2022-09-03T05:25:00.584Z,18.70
2022-09-03T05:26:01.145Z,18.70
2022-09-03T05:27:00.270Z,18.70
2022-09-03T05:28:00.626Z,18.70
2022-09-03T05:29:02.175Z,18.70
2022-09-03T05:30:00.260Z,18.70
2022-09-03T05:31:01.134Z,18.70
2022-09-03T05:32:00.402Z,18.70
2022-09-03T05:33:00.258Z,18.70
2022-09-03T05:34:01.463Z,18.70
2022-09-03T05:35:00.302Z,18.70
2022-09-03T05:36:00.897Z,18.70
2022-09-03T05:37:00.541Z,18.70
2022-09-03T05:38:00.253Z,18.70
2022-09-03T05:39:00.285Z,18.70
2022-09-03T05:40:00.362Z,18.70
2022-09-03T05:41:01.731Z,18.70
2022-09-03T05:42:00.299Z,18.70
2022-09-03T05:43:00.259Z,18.70
2022-09-03T05:44:00.660Z,18.70
2022-09-03T05:45:00.266Z,17.80
2022-09-03T05:46:01.804Z,17.80
2022-09-03T05:47:00.242Z,17.80
2022-09-03T05:48:00.300Z,17.80
2022-09-03T05:49:00.902Z,17.80
2022-09-03T05:50:00.418Z,17.80
2022-09-03T05:51:02.445Z,17.80
2022-09-03T05:52:00.356Z,17.80
2022-09-03T05:53:00.294Z,17.80
2022-09-03T05:54:00.554Z,17.80
2022-09-03T05:55:00.354Z,17.80
2022-09-03T05:56:01.384Z,17.80
2022-09-03T05:57:00.444Z,17.80
2022-09-03T05:58:00.267Z,17.80
2022-09-03T05:59:01.772Z,17.80
2022-09-03T06:00:00.370Z,17.80
2022-09-03T06:01:08.562Z,17.80
2022-09-03T06:02:00.657Z,17.80
2022-09-03T06:03:00.404Z,17.80
2022-09-03T06:04:02.693Z,17.80
2022-09-03T06:05:00.297Z,17.80
2022-09-03T06:06:00.260Z,17.80
2022-09-03T06:07:00.287Z,17.80
2022-09-03T06:08:00.390Z,17.80
2022-09-03T06:09:02.130Z,17.80
2022-09-03T06:10:00.263Z,17.80
2022-09-03T06:11:00.777Z,17.80
2022-09-03T06:12:00.356Z,17.80
2022-09-03T06:13:00.289Z,17.80
2022-09-03T06:14:01.026Z,17.80
2022-09-03T06:15:00.335Z,15.90
2022-09-03T06:16:01.611Z,15.90
2022-09-03T06:17:00.388Z,15.90
2022-09-03T06:18:00.305Z,15.90
2022-09-03T06:19:00.324Z,15.90
2022-09-03T06:20:00.259Z,15.90
2022-09-03T06:21:02.041Z,15.90
2022-09-03T06:22:00.267Z,15.90
2022-09-03T06:23:00.298Z,15.90
2022-09-03T06:24:00.475Z,15.90
2022-09-03T06:25:00.615Z,15.90
2022-09-03T06:26:04.947Z,15.90
2022-09-03T06:27:00.454Z,15.90
2022-09-03T06:28:00.263Z,15.90
2022-09-03T06:29:00.266Z,15.90
2022-09-03T06:30:00.303Z,15.90
2022-09-03T06:31:01.220Z,15.90
2022-09-03T06:32:00.370Z,15.90
2022-09-03T06:33:00.351Z,15.90
2022-09-03T06:34:03.985Z,15.90
2022-09-03T06:35:00.518Z,15.90
2022-09-03T06:36:03.295Z,15.90
2022-09-03T06:37:00.331Z,15.90
2022-09-03T06:38:00.255Z,15.90
2022-09-03T06:39:00.312Z,15.90
2022-09-03T06:40:00.442Z,15.90
2022-09-03T06:41:01.008Z,15.90
2022-09-03T06:42:00.263Z,15.90
2022-09-03T06:43:00.283Z,15.90
2022-09-03T06:44:01.540Z,15.90
2022-09-03T06:45:00.292Z,15.10
2022-09-03T06:46:02.152Z,15.10
2022-09-03T06:47:00.276Z,15.10
2022-09-03T06:48:00.270Z,15.10
2022-09-03T06:49:00.551Z,15.10
2022-09-03T06:50:00.679Z,15.10
2022-09-03T06:51:01.579Z,15.10
2022-09-03T06:52:00.343Z,15.10
2022-09-03T06:53:00.276Z,15.10
2022-09-03T06:54:01.238Z,15.10
2022-09-03T06:55:00.311Z,15.10
2022-09-03T06:56:01.957Z,15.10
2022-09-03T06:57:00.279Z,15.10
2022-09-03T06:58:00.262Z,15.10
2022-09-03T06:59:03.713Z,15.10
2022-09-03T07:00:00.369Z,15.10
2022-09-03T07:01:02.367Z,15.10
2022-09-03T07:02:00.404Z,15.10
2022-09-03T07:03:00.277Z,15.10
2022-09-03T07:04:01.618Z,15.10
2022-09-03T07:05:00.253Z,15.10
2022-09-03T07:06:01.049Z,15.10
2022-09-03T07:07:00.555Z,15.10
2022-09-03T07:08:00.342Z,15.10
2022-09-03T07:09:00.268Z,15.10
2022-09-03T07:10:00.321Z,15.10
2022-09-03T07:11:02.258Z,15.10
2022-09-03T07:12:00.364Z,15.10
2022-09-03T07:13:00.268Z,15.10
2022-09-03T07:14:00.870Z,15.10
2022-09-03T07:15:00.262Z,19.00
2022-09-03T07:16:02.066Z,19.00
2022-09-03T07:17:00.264Z,19.00
2022-09-03T07:18:00.263Z,19.00
2022-09-03T07:19:00.583Z,19.00
2022-09-03T07:20:00.260Z,19.00
2022-09-03T07:21:02.818Z,19.00
2022-09-03T07:22:00.274Z,19.00
2022-09-03T07:23:00.274Z,19.00
2022-09-03T07:24:00.294Z,19.00
2022-09-03T07:25:00.262Z,19.00
2022-09-03T07:26:01.905Z,19.00
2022-09-03T07:27:00.278Z,19.00
2022-09-03T07:28:00.335Z,19.00
2022-09-03T07:29:00.538Z,19.00
2022-09-03T07:30:00.298Z,19.00
2022-09-03T07:31:03.160Z,19.00
2022-09-03T07:32:00.509Z,19.00
2022-09-03T07:33:00.259Z,19.00
2022-09-03T07:34:02.282Z,19.00
2022-09-03T07:35:00.325Z,19.00
2022-09-03T07:36:04.742Z,19.00
2022-09-03T07:37:00.286Z,19.00
2022-09-03T07:38:00.315Z,19.00
2022-09-03T07:39:00.350Z,19.00
2022-09-03T07:40:00.467Z,19.00
2022-09-03T07:41:01.039Z,19.00
2022-09-03T07:42:00.270Z,19.00
2022-09-03T07:43:00.352Z,19.00
2022-09-03T07:44:00.357Z,19.00
2022-09-03T07:45:00.455Z,15.40
2022-09-03T07:46:00.386Z,15.40
2022-09-03T07:47:00.313Z,15.40
2022-09-03T07:48:00.306Z,15.40
2022-09-03T07:49:00.543Z,15.40
2022-09-03T07:50:00.364Z,15.40
2022-09-03T07:51:00.634Z,15.40
2022-09-03T07:52:00.339Z,15.40
2022-09-03T07:53:00.254Z,15.40
2022-09-03T07:54:01.484Z,15.40
2022-09-03T07:55:00.269Z,15.40
2022-09-03T07:56:01.745Z,15.40
2022-09-03T07:57:00.254Z,15.40
2022-09-03T07:58:00.264Z,15.40
2022-09-03T07:59:00.349Z,15.40
2022-09-03T08:00:00.399Z,15.40
2022-09-03T08:01:05.037Z,15.40
2022-09-03T08:02:00.255Z,15.40
2022-09-03T08:03:00.263Z,15.40
2022-09-03T08:04:01.105Z,15.40
2022-09-03T08:05:00.265Z,15.40
2022-09-03T08:06:01.665Z,15.40
2022-09-03T08:07:00.296Z,15.40
2022-09-03T08:08:00.273Z,15.40
2022-09-03T08:09:05.250Z,15.40
2022-09-03T08:10:00.282Z,15.40
2022-09-03T08:11:04.838Z,15.40
2022-09-03T08:12:00.300Z,15.40
2022-09-03T08:13:00.387Z,15.40
2022-09-03T08:14:01.867Z,15.40
2022-09-03T08:15:00.280Z,13.70
2022-09-03T08:16:00.411Z,13.70
2022-09-03T08:17:00.273Z,13.70
2022-09-03T08:18:03.711Z,13.70
2022-09-03T08:19:00.277Z,13.70
2022-09-03T08:20:00.410Z,13.70
2022-09-03T08:21:00.349Z,13.70
2022-09-03T08:22:00.897Z,13.70
2022-09-03T08:23:01.215Z,13.70
2022-09-03T08:24:00.343Z,13.70
2022-09-03T08:25:00.292Z,13.70
2022-09-03T08:26:00.415Z,13.70
2022-09-03T08:27:00.277Z,13.70
2022-09-03T08:28:00.259Z,13.70
2022-09-03T08:29:00.404Z,13.70
2022-09-03T08:30:00.297Z,13.70
2022-09-03T08:31:04.178Z,13.70
2022-09-03T08:32:00.355Z,13.70
2022-09-03T08:33:00.903Z,13.70
2022-09-03T08:34:00.860Z,13.70
2022-09-03T08:35:00.253Z,13.70
2022-09-03T08:36:00.301Z,13.70
2022-09-03T08:37:00.260Z,13.70
2022-09-03T08:38:00.265Z,13.70
2022-09-03T08:39:01.797Z,13.70
2022-09-03T08:40:00.567Z,13.70
2022-09-03T08:41:04.577Z,13.70
2022-09-03T08:42:10.167Z,13.70
2022-09-03T08:43:10.158Z,13.70
2022-09-03T08:44:08.584Z,13.70
2022-09-03T08:45:01.396Z,13.90
2022-09-03T08:46:00.938Z,13.90
2022-09-03T08:47:01.284Z,13.90
2022-09-03T08:48:04.515Z,13.90
2022-09-03T08:49:00.734Z,13.90
2022-09-03T08:50:10.186Z,13.90
2022-09-03T08:51:02.556Z,13.90
2022-09-03T08:52:02.102Z,13.90
2022-09-03T08:53:05.668Z,13.90
2022-09-03T08:54:01.004Z,13.90
2022-09-03T08:55:05.916Z,13.90
2022-09-03T08:56:07.885Z,13.90
2022-09-03T08:57:02.139Z,13.90
2022-09-03T08:58:04.285Z,13.90
2022-09-03T08:59:00.763Z,13.90
2022-09-03T09:00:00.356Z,13.90
2022-09-03T09:01:10.176Z,13.90
2022-09-03T09:02:03.686Z,13.90
2022-09-03T09:03:10.164Z,13.90
2022-09-03T09:04:10.162Z,13.90
2022-09-03T09:05:14.160Z,13.90
2022-09-03T09:06:07.617Z,13.90
2022-09-03T09:07:00.267Z,13.90
2022-09-03T09:08:10.168Z,13.90
2022-09-03T09:09:10.165Z,13.90
2022-09-03T09:10:07.786Z,13.90
2022-09-03T09:11:00.273Z,13.90
2022-09-03T09:12:09.197Z,13.90
2022-09-03T09:13:03.587Z,13.90
2022-09-03T09:14:00.245Z,13.90
2022-09-03T09:15:10.175Z,15.70
2022-09-03T09:16:00.315Z,15.70
2022-09-03T09:17:10.174Z,15.70
2022-09-03T09:18:03.534Z,15.70
2022-09-03T09:19:10.183Z,15.70
2022-09-03T09:20:10.190Z,15.70
2022-09-03T09:21:01.259Z,15.70
2022-09-03T09:22:02.587Z,15.70
2022-09-03T09:23:02.432Z,15.70
2022-09-03T09:24:03.529Z,15.70
2022-09-03T09:25:02.837Z,15.70
2022-09-03T09:26:05.711Z,15.70
2022-09-03T09:27:03.143Z,15.70
2022-09-03T09:28:02.845Z,15.70
2022-09-03T09:29:02.959Z,15.70
2022-09-03T09:30:03.144Z,15.70
2022-09-03T09:31:01.810Z,15.70
2022-09-03T09:32:00.718Z,15.70
2022-09-03T09:33:00.262Z,15.70
2022-09-03T09:34:04.019Z,15.70
2022-09-03T09:35:00.285Z,15.70
2022-09-03T09:36:02.164Z,15.70
2022-09-03T09:37:02.193Z,15.70
2022-09-03T09:38:00.307Z,15.70
2022-09-03T09:39:10.161Z,15.70
2022-09-03T09:40:00.484Z,15.70
2022-09-03T09:41:10.180Z,15.70
2022-09-03T09:42:03.829Z,15.70
2022-09-03T09:43:03.556Z,15.70
2022-09-03T09:44:01.378Z,15.70
2022-09-03T09:45:08.177Z,14.30
2022-09-03T09:46:05.626Z,14.30
2022-09-03T09:47:01.953Z,14.30
2022-09-03T09:48:01.481Z,14.30
2022-09-03T09:49:00.293Z,14.30
2022-09-03T09:50:01.183Z,14.30
2022-09-03T09:51:10.170Z,14.30
2022-09-03T09:52:08.685Z,14.30
2022-09-03T09:53:02.644Z,14.30
2022-09-03T09:54:01.329Z,14.30
2022-09-03T09:55:10.204Z,14.30
2022-09-03T09:56:00.424Z,14.30
2022-09-03T09:57:01.301Z,14.30
2022-09-03T09:58:04.376Z,14.30
2022-09-03T09:59:03.566Z,14.30
2022-09-03T10:00:04.465Z,14.30
2022-09-03T10:01:04.242Z,14.30
2022-09-03T10:02:05.841Z,14.30
2022-09-03T10:03:00.437Z,14.30
2022-09-03T10:04:08.709Z,14.30
2022-09-03T10:05:10.189Z,14.30
2022-09-03T10:06:02.996Z,14.30
2022-09-03T10:07:10.180Z,14.30
2022-09-03T10:08:02.012Z,14.30
2022-09-03T10:09:07.710Z,14.30
2022-09-03T10:10:03.589Z,14.30
2022-09-03T10:11:00.335Z,14.30
2022-09-03T10:12:04.583Z,14.30
2022-09-03T10:13:03.987Z,14.30
2022-09-03T10:14:00.835Z,14.30
2022-09-03T10:15:03.607Z,14.30
2022-09-03T10:16:03.376Z,14.30
2022-09-03T10:17:04.874Z,14.30
2022-09-03T10:18:10.183Z,14.30
2022-09-03T10:19:01.292Z,14.30
2022-09-03T10:20:03.555Z,14.30
2022-09-03T10:21:03.703Z,14.30
2022-09-03T10:22:01.398Z,14.30
2022-09-03T10:23:04.503Z,14.30
2022-09-03T10:24:10.180Z,14.30
2022-09-03T10:25:01.493Z,14.30
2022-09-03T10:26:10.178Z,14.30
2022-09-03T10:27:00.324Z,14.30
2022-09-03T10:28:00.603Z,14.30
2022-09-03T10:29:01.454Z,14.30
2022-09-03T10:30:00.392Z,14.30
2022-09-03T10:31:10.222Z,14.30
2022-09-03T10:32:03.729Z,14.30
2022-09-03T10:33:10.177Z,14.30
2022-09-03T10:34:01.287Z,14.30
2022-09-03T10:35:10.181Z,14.30
2022-09-03T10:36:08.190Z,14.30
2022-09-03T10:37:10.191Z,14.30
2022-09-03T10:38:01.263Z,14.30
2022-09-03T10:39:09.360Z,14.30
2022-09-03T10:40:01.298Z,14.30
2022-09-03T10:41:10.223Z,14.30
2022-09-03T10:42:10.168Z,14.30
2022-09-03T10:43:01.258Z,14.30
2022-09-03T10:44:01.287Z,14.30
2022-09-03T10:45:07.442Z,13.80
2022-09-03T10:46:02.577Z,13.80
2022-09-03T10:47:10.224Z,13.80
2022-09-03T10:48:10.178Z,13.80
2022-09-03T10:49:00.245Z,13.80
2022-09-03T10:50:10.191Z,13.80
2022-09-03T10:51:00.252Z,13.80
2022-09-03T10:52:08.479Z,13.80
2022-09-03T10:53:10.207Z,13.80
2022-09-03T10:54:03.514Z,13.80
2022-09-03T10:55:10.167Z,13.80
2022-09-03T10:56:10.176Z,13.80
2022-09-03T10:57:10.208Z,13.80
2022-09-03T10:58:10.168Z,13.80
2022-09-03T10:59:10.187Z,13.80
2022-09-03T11:00:04.982Z,13.80
2022-09-03T11:01:03.198Z,13.80
2022-09-03T11:02:00.262Z,13.80
2022-09-03T11:03:10.187Z,13.80
2022-09-03T11:04:07.550Z,13.80
2022-09-03T11:05:04.036Z,13.80
2022-09-03T11:06:04.264Z,13.80
2022-09-03T11:07:02.148Z,13.80
2022-09-03T11:08:04.655Z,13.80
2022-09-03T11:09:06.770Z,13.80
2022-09-03T11:10:06.858Z,13.80
2022-09-03T11:11:08.282Z,13.80
2022-09-03T11:12:07.281Z,13.80
2022-09-03T11:13:10.165Z,13.80
2022-09-03T11:14:06.042Z,13.80
2022-09-03T11:15:02.766Z,8.10
2022-09-03T11:16:05.216Z,8.10
2022-09-03T11:17:04.899Z,8.10
2022-09-03T11:18:00.248Z,8.10
2022-09-03T11:19:03.197Z,8.10
2022-09-03T11:20:10.189Z,8.10
2022-09-03T11:21:02.932Z,8.10
2022-09-03T11:22:00.842Z,8.10
2022-09-03T11:23:02.185Z,8.10
2022-09-03T11:24:01.298Z,8.10
2022-09-03T11:25:01.451Z,8.10
2022-09-03T11:26:04.732Z,8.10
2022-09-03T11:27:10.175Z,8.10
2022-09-03T11:28:08.554Z,8.10
2022-09-03T11:29:03.587Z,8.10
2022-09-03T11:30:03.925Z,8.10
2022-09-03T11:31:10.218Z,8.10
2022-09-03T11:32:04.448Z,8.10
2022-09-03T11:33:06.433Z,8.10
2022-09-03T11:34:10.163Z,8.10
2022-09-03T11:35:00.270Z,8.10
2022-09-03T11:36:00.853Z,8.10
2022-09-03T11:37:07.719Z,8.10
2022-09-03T11:38:01.535Z,8.10
2022-09-03T11:39:10.168Z,8.10
2022-09-03T11:40:03.643Z,8.10
2022-09-03T11:41:01.262Z,8.10
2022-09-03T11:42:02.263Z,8.10
2022-09-03T11:43:10.185Z,8.10
2022-09-03T11:44:10.171Z,8.10
2022-09-03T11:45:10.192Z,6.60
2022-09-03T11:46:10.308Z,6.60
2022-09-03T11:47:00.292Z,6.60
2022-09-03T11:48:00.302Z,6.60
2022-09-03T11:49:10.176Z,6.60
2022-09-03T11:50:05.821Z,6.60
2022-09-03T11:51:00.262Z,6.60
2022-09-03T11:52:02.013Z,6.60
2022-09-03T11:53:08.689Z,6.60
2022-09-03T11:54:03.061Z,6.60
2022-09-03T11:55:00.255Z,6.60
2022-09-03T11:56:10.175Z,6.60
2022-09-03T11:57:05.062Z,6.60
2022-09-03T11:58:10.174Z,6.60
2022-09-03T11:59:02.845Z,6.60
2022-09-03T12:00:10.194Z,6.60
2022-09-03T12:01:01.553Z,6.60
2022-09-03T12:02:08.444Z,6.60
2022-09-03T12:03:02.341Z,6.60
2022-09-03T12:04:01.972Z,6.60
2022-09-03T12:05:01.290Z,6.60
2022-09-03T12:06:10.169Z,6.60
2022-09-03T12:07:03.502Z,6.60
2022-09-03T12:08:10.174Z,6.60
2022-09-03T12:09:07.467Z,6.60
2022-09-03T12:10:10.193Z,6.60
2022-09-03T12:11:10.172Z,6.60
2022-09-03T12:12:03.533Z,6.60
2022-09-03T12:13:06.304Z,6.60
2022-09-03T12:14:13.592Z,6.60
2022-09-03T12:15:10.162Z,6.80
2022-09-03T12:16:10.315Z,6.80
2022-09-03T12:17:10.171Z,6.80
2022-09-03T12:18:03.641Z,6.80
2022-09-03T12:19:03.328Z,6.80
2022-09-03T12:20:00.333Z,6.80
2022-09-03T12:21:01.874Z,6.80
2022-09-03T12:22:00.271Z,6.80
2022-09-03T12:23:00.341Z,6.80
2022-09-03T12:24:00.897Z,6.80
2022-09-03T12:25:09.128Z,6.80
2022-09-03T12:26:03.547Z,6.80
2022-09-03T12:27:00.590Z,6.80
2022-09-03T12:28:00.878Z,6.80
2022-09-03T12:29:00.341Z,6.80
2022-09-03T12:30:01.355Z,6.80
2022-09-03T12:31:09.251Z,6.80
2022-09-03T12:32:10.185Z,6.80
2022-09-03T12:33:07.816Z,6.80
2022-09-03T12:34:06.747Z,6.80
2022-09-03T12:35:09.525Z,6.80
2022-09-03T12:36:00.885Z,6.80
2022-09-03T12:37:00.506Z,6.80
2022-09-03T12:38:04.190Z,6.80
2022-09-03T12:39:12.729Z,6.80
2022-09-03T12:40:08.324Z,6.80
2022-09-03T12:41:27.618Z,6.80
2022-09-03T12:42:03.662Z,6.80
2022-09-03T12:43:38.342Z,6.80
2022-09-03T12:44:00.295Z,6.80
2022-09-03T12:45:07.968Z,7.60
2022-09-03T12:46:12.010Z,7.60
2022-09-03T12:47:35.098Z,7.60
2022-09-03T12:48:00.319Z,7.60
2022-09-03T12:49:30.955Z,7.60
2022-09-03T12:50:05.250Z,7.60
2022-09-03T12:51:48.244Z,7.60
2022-09-03T12:52:05.880Z,7.60
2022-09-03T12:53:01.810Z,7.60
2022-09-03T12:54:01.039Z,7.60
2022-09-03T12:55:04.866Z,7.60